createdAt,value
2022-08-17T00:00:08.114Z,394
2022-08-17T00:01:07.727Z,398
2022-08-17T00:02:22.445Z,387
2022-08-17T00:04:11.789Z,384
2022-08-17T00:05:07.161Z,437
2022-08-17T00:06:06.832Z,393
2022-08-17T00:07:06.751Z,389
2022-08-17T00:08:06.753Z,395
2022-08-17T00:09:07.544Z,391
2022-08-17T00:10:07.034Z,387
2022-08-17T00:11:06.895Z,388
2022-08-17T00:12:42.807Z,395
2022-08-17T00:13:07.173Z,399
2022-08-17T00:14:07.009Z,408
2022-08-17T00:15:08.342Z,399
2022-08-17T00:16:06.925Z,402
2022-08-17T00:17:06.952Z,400
2022-08-17T00:19:06.281Z,406
2022-08-17T00:19:08.664Z,368
2022-08-17T00:20:07.315Z,371
2022-08-17T00:21:10.490Z,394
2022-08-17T00:22:34.159Z,388
2022-08-17T00:23:07.240Z,399
2022-08-17T00:24:07.417Z,387
2022-08-17T00:25:07.729Z,384
2022-08-17T00:26:07.050Z,375
2022-08-17T00:27:07.682Z,379
2022-08-17T00:28:07.148Z,374
2022-08-17T00:29:07.372Z,372
2022-08-17T00:30:07.714Z,381
2022-08-17T00:31:07.213Z,380
2022-08-17T00:33:12.651Z,375
2022-08-17T00:33:15.572Z,380
2022-08-17T00:34:07.649Z,387
2022-08-17T00:35:07.161Z,402
2022-08-17T00:36:07.610Z,399
2022-08-17T00:37:07.235Z,385
2022-08-17T00:38:07.385Z,379
2022-08-17T00:39:07.573Z,383
2022-08-17T00:40:07.698Z,381
2022-08-17T00:41:07.414Z,375
2022-08-17T00:42:07.455Z,379
2022-08-17T00:43:07.769Z,393
2022-08-17T00:44:07.518Z,392
2022-08-17T00:45:07.909Z,390
2022-08-17T00:46:07.367Z,403
2022-08-17T00:47:07.320Z,392
2022-08-17T00:48:07.546Z,388
2022-08-17T00:49:07.445Z,384
2022-08-17T00:50:07.543Z,387
2022-08-17T00:52:10.845Z,386
2022-08-17T00:53:07.464Z,398
2022-08-17T00:54:07.401Z,396
2022-08-17T00:55:07.641Z,388
2022-08-17T00:56:06.950Z,394
2022-08-17T00:57:07.091Z,390
2022-08-17T00:58:07.490Z,385
2022-08-17T00:59:07.377Z,383
2022-08-17T01:00:08.479Z,377
2022-08-17T01:01:07.432Z,378
2022-08-17T01:02:07.046Z,387
2022-08-17T01:03:07.462Z,380
2022-08-17T01:04:07.659Z,385
2022-08-17T01:05:07.289Z,389
2022-08-17T01:06:07.310Z,391
2022-08-17T01:07:07.474Z,378
2022-08-17T01:08:07.725Z,375
2022-08-17T01:09:07.398Z,380
2022-08-17T01:10:07.597Z,388
2022-08-17T01:11:07.524Z,395
2022-08-17T01:12:08.083Z,396
2022-08-17T01:13:07.415Z,383
2022-08-17T01:14:07.209Z,353
2022-08-17T01:15:08.189Z,362
2022-08-17T01:16:07.639Z,359
2022-08-17T01:17:07.137Z,365
2022-08-17T01:18:07.377Z,372
2022-08-17T01:19:07.093Z,375
2022-08-17T01:20:07.748Z,370
2022-08-17T01:21:07.728Z,375
2022-08-17T01:22:06.999Z,387
2022-08-17T01:23:07.418Z,380
2022-08-17T01:25:07.086Z,395
2022-08-17T01:26:06.993Z,381
2022-08-17T01:27:10.365Z,391
2022-08-17T01:28:06.837Z,381
2022-08-17T01:29:06.892Z,387
2022-08-17T01:30:58.802Z,388
2022-08-17T01:31:08.753Z,375
2022-08-17T01:32:07.151Z,374
2022-08-17T01:33:07.452Z,383
2022-08-17T01:34:07.525Z,386
2022-08-17T01:35:07.145Z,382
2022-08-17T01:36:12.152Z,376
2022-08-17T01:37:07.183Z,381
2022-08-17T01:38:07.191Z,379
2022-08-17T01:39:07.317Z,378
2022-08-17T01:40:07.417Z,376
2022-08-17T01:41:07.403Z,404
2022-08-17T01:42:07.510Z,373
2022-08-17T01:43:06.906Z,369
2022-08-17T01:44:07.163Z,363
2022-08-17T01:45:07.364Z,373
2022-08-17T01:46:07.902Z,374
2022-08-17T01:47:06.838Z,385
2022-08-17T01:48:06.907Z,390
2022-08-17T01:49:07.157Z,381
2022-08-17T01:50:06.948Z,378
2022-08-17T01:51:06.997Z,371
2022-08-17T01:52:07.023Z,368
2022-08-17T01:53:07.069Z,362
2022-08-17T01:54:07.065Z,367
2022-08-17T01:55:07.001Z,354
2022-08-17T01:56:07.586Z,376
2022-08-17T01:57:07.426Z,372
2022-08-17T01:58:07.214Z,375
2022-08-17T01:59:06.806Z,381
2022-08-17T02:00:07.722Z,376
2022-08-17T02:01:06.837Z,374
2022-08-17T02:02:07.014Z,389
2022-08-17T02:03:06.918Z,398
2022-08-17T02:04:07.276Z,383
2022-08-17T02:05:07.283Z,378
2022-08-17T02:08:07.141Z,385
2022-08-17T02:09:07.098Z,386
2022-08-17T02:11:11.363Z,377
2022-08-17T02:12:47.444Z,380
2022-08-17T02:13:07.317Z,377
2022-08-17T02:14:07.368Z,388
2022-08-17T02:15:07.256Z,383
2022-08-17T02:16:07.395Z,377
2022-08-17T02:17:07.559Z,384
2022-08-17T02:18:07.544Z,372
2022-08-17T02:19:07.117Z,368
2022-08-17T02:20:07.545Z,382
2022-08-17T02:21:07.377Z,379
2022-08-17T02:22:07.543Z,377
2022-08-17T02:23:06.933Z,386
2022-08-17T02:24:07.414Z,396
2022-08-17T02:25:07.818Z,386
2022-08-17T02:26:07.181Z,382
2022-08-17T02:29:07.502Z,375
2022-08-17T02:30:59.851Z,368
2022-08-17T02:31:09.570Z,383
2022-08-17T02:32:07.243Z,384
2022-08-17T02:33:09.232Z,366
2022-08-17T02:35:07.752Z,333
2022-08-17T02:36:06.897Z,423
2022-08-17T02:37:07.355Z,388
2022-08-17T02:38:07.463Z,383
2022-08-17T02:39:07.629Z,393
2022-08-17T02:40:07.140Z,381
2022-08-17T02:41:07.605Z,377
2022-08-17T02:42:07.587Z,382
2022-08-17T02:43:07.609Z,383
2022-08-17T02:45:07.238Z,381
2022-08-17T02:46:07.382Z,379
2022-08-17T02:47:07.402Z,384
2022-08-17T02:48:07.590Z,382
2022-08-17T02:49:07.492Z,394
2022-08-17T02:50:07.660Z,384
2022-08-17T02:51:06.982Z,390
2022-08-17T02:52:06.855Z,382
2022-08-17T02:53:08.021Z,388
2022-08-17T02:54:41.806Z,391
2022-08-17T02:55:07.366Z,392
2022-08-17T02:56:07.492Z,379
2022-08-17T02:57:07.388Z,385
2022-08-17T02:58:07.670Z,382
2022-08-17T02:59:07.054Z,378
2022-08-17T03:00:08.464Z,379
2022-08-17T03:02:07.088Z,383
2022-08-17T03:03:07.329Z,407
2022-08-17T03:04:07.486Z,378
2022-08-17T03:05:07.620Z,382
2022-08-17T03:06:07.204Z,399
2022-08-17T03:07:07.380Z,381
2022-08-17T03:08:06.953Z,376
2022-08-17T03:10:07.542Z,389
2022-08-17T03:11:07.035Z,392
2022-08-17T03:12:07.304Z,385
2022-08-17T03:13:07.315Z,382
2022-08-17T03:14:07.467Z,388
2022-08-17T03:15:07.760Z,385
2022-08-17T03:16:07.031Z,371
2022-08-17T03:17:07.148Z,342
2022-08-17T03:18:07.155Z,420
2022-08-17T03:19:07.525Z,405
2022-08-17T03:20:07.716Z,381
2022-08-17T03:21:07.123Z,380
2022-08-17T03:23:07.803Z,379
2022-08-17T03:24:08.941Z,390
2022-08-17T03:25:10.656Z,383
2022-08-17T03:26:07.206Z,378
2022-08-17T03:27:07.582Z,373
2022-08-17T03:28:07.197Z,376
2022-08-17T03:29:07.474Z,377
2022-08-17T03:30:07.642Z,384
2022-08-17T03:31:08.028Z,416
2022-08-17T03:32:07.181Z,404
2022-08-17T03:33:07.391Z,398
2022-08-17T03:34:07.410Z,404
2022-08-17T03:35:07.355Z,399
2022-08-17T03:37:07.016Z,396
2022-08-17T03:38:07.227Z,404
2022-08-17T03:39:07.261Z,416
2022-08-17T03:40:07.383Z,425
2022-08-17T03:41:06.930Z,411
2022-08-17T03:42:07.428Z,384
2022-08-17T03:43:07.392Z,387
2022-08-17T03:44:07.504Z,368
2022-08-17T03:45:07.834Z,418
2022-08-17T03:46:27.340Z,381
2022-08-17T03:47:07.816Z,378
2022-08-17T03:48:07.122Z,385
2022-08-17T03:49:07.157Z,383
2022-08-17T03:50:10.355Z,376
2022-08-17T03:51:11.421Z,381
2022-08-17T03:52:07.464Z,378
2022-08-17T03:53:06.900Z,379
2022-08-17T03:54:07.741Z,373
2022-08-17T03:55:07.163Z,365
2022-08-17T03:56:07.313Z,375
2022-08-17T03:57:07.400Z,376
2022-08-17T03:58:07.368Z,388
2022-08-17T04:00:08.328Z,375
2022-08-17T04:01:07.653Z,374
2022-08-17T04:03:07.138Z,371
2022-08-17T04:04:07.195Z,380
2022-08-17T04:05:07.177Z,379
2022-08-17T04:06:06.802Z,370
2022-08-17T04:07:07.027Z,361
2022-08-17T04:08:07.257Z,368
2022-08-17T04:10:07.243Z,376
2022-08-17T04:11:07.247Z,366
2022-08-17T04:12:07.552Z,372
2022-08-17T04:13:07.024Z,380
2022-08-17T04:14:07.632Z,377
2022-08-17T04:15:07.924Z,375
2022-08-17T04:16:07.570Z,377
2022-08-17T04:17:07.074Z,369
2022-08-17T04:18:07.697Z,373
2022-08-17T04:19:07.312Z,368
2022-08-17T04:20:07.506Z,381
2022-08-17T04:21:07.724Z,397
2022-08-17T04:22:07.517Z,389
2022-08-17T04:23:07.587Z,373
2022-08-17T04:24:07.973Z,366
2022-08-17T04:25:07.640Z,375
2022-08-17T04:26:07.114Z,373
2022-08-17T04:27:07.602Z,379
2022-08-17T04:28:07.651Z,377
2022-08-17T04:29:06.947Z,389
2022-08-17T04:30:07.716Z,388
2022-08-17T04:31:07.195Z,380
2022-08-17T04:32:07.362Z,375
2022-08-17T04:33:07.575Z,372
2022-08-17T04:34:07.275Z,374
2022-08-17T04:35:07.896Z,390
2022-08-17T04:36:07.208Z,395
2022-08-17T04:37:07.305Z,383
2022-08-17T04:38:07.993Z,380
2022-08-17T04:39:07.450Z,375
2022-08-17T04:40:07.616Z,363
2022-08-17T04:41:07.362Z,427
2022-08-17T04:42:07.359Z,389
2022-08-17T04:43:07.848Z,378
2022-08-17T04:44:07.480Z,386
2022-08-17T04:45:07.518Z,383
2022-08-17T04:46:07.544Z,373
2022-08-17T04:47:07.241Z,381
2022-08-17T04:48:07.459Z,377
2022-08-17T04:49:08.073Z,389
2022-08-17T04:51:06.956Z,374
2022-08-17T04:52:07.615Z,376
2022-08-17T04:53:07.756Z,390
2022-08-17T04:54:07.351Z,414
2022-08-17T04:55:07.656Z,374
2022-08-17T04:56:07.398Z,378
2022-08-17T04:58:07.429Z,367
2022-08-17T04:59:07.813Z,373
2022-08-17T05:00:07.810Z,374
2022-08-17T05:01:07.616Z,382
2022-08-17T05:02:07.185Z,390
2022-08-17T05:03:07.422Z,382
2022-08-17T05:04:33.137Z,372
2022-08-17T05:05:07.768Z,382
2022-08-17T05:06:07.669Z,388
2022-08-17T05:07:07.795Z,373
2022-08-17T05:08:07.060Z,368
2022-08-17T05:09:07.875Z,379
2022-08-17T05:10:07.476Z,377
2022-08-17T05:11:07.165Z,373
2022-08-17T05:12:07.534Z,380
2022-08-17T05:13:08.111Z,374
2022-08-17T05:14:07.066Z,387
2022-08-17T05:15:07.553Z,378
2022-08-17T05:16:07.019Z,374
2022-08-17T05:17:11.181Z,380
2022-08-17T05:18:07.387Z,381
2022-08-17T05:19:07.520Z,382
2022-08-17T05:20:07.042Z,390
2022-08-17T05:21:07.740Z,378
2022-08-17T05:22:07.353Z,395
2022-08-17T05:23:07.424Z,373
2022-08-17T05:24:12.847Z,386
2022-08-17T05:26:07.895Z,378
2022-08-17T05:27:06.988Z,372
2022-08-17T05:28:07.814Z,373
2022-08-17T05:29:07.715Z,375
2022-08-17T05:30:07.310Z,359
2022-08-17T05:31:07.757Z,369
2022-08-17T05:32:38.088Z,368
2022-08-17T05:33:07.587Z,369
2022-08-17T05:34:07.524Z,383
2022-08-17T05:35:07.828Z,382
2022-08-17T05:36:07.322Z,359
2022-08-17T05:37:07.364Z,355
2022-08-17T05:38:07.397Z,377
2022-08-17T05:39:07.816Z,374
2022-08-17T05:40:07.284Z,380
2022-08-17T05:41:07.615Z,372
2022-08-17T05:42:07.804Z,374
2022-08-17T05:43:07.298Z,379
2022-08-17T05:44:07.419Z,360
2022-08-17T05:45:07.716Z,351
2022-08-17T05:46:06.890Z,358
2022-08-17T05:47:07.208Z,364
2022-08-17T05:48:07.489Z,367
2022-08-17T05:49:07.554Z,374
2022-08-17T05:50:09.589Z,372
2022-08-17T05:51:07.257Z,384
2022-08-17T05:52:07.415Z,375
2022-08-17T05:54:07.013Z,389
2022-08-17T05:55:08.087Z,398
2022-08-17T05:56:10.885Z,388
2022-08-17T05:57:07.770Z,363
2022-08-17T05:58:07.073Z,366
2022-08-17T05:59:07.386Z,355
2022-08-17T06:00:08.439Z,362
2022-08-17T06:01:07.316Z,373
2022-08-17T06:02:07.894Z,365
2022-08-17T06:03:07.774Z,381
2022-08-17T06:04:07.203Z,402
2022-08-17T06:05:08.035Z,408
2022-08-17T06:06:07.533Z,413
2022-08-17T06:07:07.884Z,405
2022-08-17T06:09:07.570Z,384
2022-08-17T06:10:07.371Z,380
2022-08-17T06:11:07.902Z,384
2022-08-17T06:12:08.281Z,390
2022-08-17T06:13:07.223Z,391
2022-08-17T06:14:07.577Z,381
2022-08-17T06:15:08.238Z,391
2022-08-17T06:16:33.213Z,393
2022-08-17T06:17:07.937Z,407
2022-08-17T06:18:07.683Z,383
2022-08-17T06:19:07.975Z,382
2022-08-17T06:20:07.525Z,383
2022-08-17T06:21:07.941Z,378
2022-08-17T06:22:07.690Z,372
2022-08-17T06:23:06.829Z,382
2022-08-17T06:24:06.867Z,385
2022-08-17T06:25:10.277Z,382
2022-08-17T06:26:07.481Z,376
2022-08-17T06:27:07.145Z,372
2022-08-17T06:28:07.690Z,367
2022-08-17T06:29:08.235Z,375
2022-08-17T06:30:08.084Z,374
2022-08-17T06:31:07.534Z,387
2022-08-17T06:33:07.672Z,391
2022-08-17T06:34:07.289Z,395
2022-08-17T06:35:08.406Z,382
2022-08-17T06:36:09.585Z,376
2022-08-17T06:37:07.537Z,381
2022-08-17T06:38:07.372Z,383
2022-08-17T06:39:07.498Z,379
2022-08-17T06:40:07.391Z,374
2022-08-17T06:41:08.007Z,388
2022-08-17T06:42:07.613Z,385
2022-08-17T06:43:08.017Z,379
2022-08-17T06:44:07.853Z,373
2022-08-17T06:45:07.925Z,365
2022-08-17T06:46:07.603Z,369
2022-08-17T06:47:07.616Z,384
2022-08-17T06:48:07.978Z,376
2022-08-17T06:49:07.882Z,377
2022-08-17T06:50:07.362Z,376
2022-08-17T06:51:06.960Z,380
2022-08-17T06:52:07.392Z,372
2022-08-17T06:53:07.267Z,384
2022-08-17T06:54:07.488Z,392
2022-08-17T06:55:07.160Z,375
2022-08-17T06:56:07.165Z,367
2022-08-17T06:57:07.878Z,356
2022-08-17T06:58:16.461Z,371
2022-08-17T06:59:07.193Z,350
2022-08-17T07:00:08.949Z,355
2022-08-17T07:01:07.387Z,361
2022-08-17T07:02:07.947Z,366
2022-08-17T07:03:08.187Z,360
2022-08-17T07:04:11.956Z,361
2022-08-17T07:05:08.078Z,360
2022-08-17T07:06:07.517Z,354
2022-08-17T07:07:07.605Z,362
2022-08-17T07:08:07.106Z,367
2022-08-17T07:09:07.865Z,363
2022-08-17T07:11:07.885Z,394
2022-08-17T07:12:07.404Z,365
2022-08-17T07:13:07.604Z,360
2022-08-17T07:14:07.835Z,374
2022-08-17T07:15:07.623Z,376
2022-08-17T07:16:07.245Z,373
2022-08-17T07:17:07.724Z,376
2022-08-17T07:18:07.363Z,377
2022-08-17T07:19:07.807Z,369
2022-08-17T07:20:07.673Z,375
2022-08-17T07:21:07.722Z,376
2022-08-17T07:22:07.086Z,373
2022-08-17T07:23:07.385Z,358
2022-08-17T07:24:08.100Z,360
2022-08-17T07:25:07.546Z,357
2022-08-17T07:26:06.993Z,353
2022-08-17T07:27:07.362Z,372
2022-08-17T07:28:07.932Z,376
2022-08-17T07:29:07.841Z,374
2022-08-17T07:30:10.673Z,368
2022-08-17T07:32:08.007Z,352
2022-08-17T07:33:07.370Z,357
2022-08-17T07:34:07.253Z,360
2022-08-17T07:35:07.027Z,361
2022-08-17T07:36:07.742Z,356
2022-08-17T07:37:07.178Z,346
2022-08-17T07:38:07.274Z,368
2022-08-17T07:39:07.312Z,332
2022-08-17T07:40:16.338Z,352
2022-08-17T07:41:07.224Z,362
2022-08-17T07:42:07.816Z,353
2022-08-17T07:43:07.654Z,367
2022-08-17T07:44:07.412Z,364
2022-08-17T07:45:08.483Z,352
2022-08-17T07:46:06.969Z,360
2022-08-17T07:47:07.936Z,367
2022-08-17T07:48:07.757Z,362
2022-08-17T07:49:08.220Z,369
2022-08-17T07:51:07.254Z,363
2022-08-17T07:52:47.683Z,356
2022-08-17T07:53:07.803Z,370
2022-08-17T07:54:14.633Z,371
2022-08-17T07:55:07.258Z,368
2022-08-17T07:57:07.190Z,370
2022-08-17T07:58:08.014Z,367
2022-08-17T07:59:07.777Z,373
2022-08-17T08:00:13.487Z,370
2022-08-17T08:01:07.419Z,362
2022-08-17T08:03:07.476Z,354
2022-08-17T08:04:07.190Z,358
2022-08-17T08:05:08.832Z,376
2022-08-17T08:06:08.105Z,359
2022-08-17T08:07:07.734Z,371
2022-08-17T08:08:07.487Z,376
2022-08-17T08:10:07.738Z,369
2022-08-17T08:11:06.970Z,376
2022-08-17T08:12:07.878Z,365
2022-08-17T08:13:07.673Z,363
2022-08-17T08:14:07.836Z,364
2022-08-17T08:15:07.526Z,356
2022-08-17T08:16:07.206Z,357
2022-08-17T08:17:09.329Z,369
2022-08-17T08:18:07.551Z,364
2022-08-17T08:19:08.134Z,374
2022-08-17T08:20:37.865Z,350
2022-08-17T08:21:07.412Z,341
2022-08-17T08:22:07.306Z,351
2022-08-17T08:23:07.277Z,360
2022-08-17T08:24:08.371Z,354
2022-08-17T08:25:08.131Z,359
2022-08-17T08:26:07.348Z,352
2022-08-17T08:27:07.417Z,343
2022-08-17T08:28:07.230Z,359
2022-08-17T08:29:07.754Z,356
2022-08-17T08:30:08.654Z,358
2022-08-17T08:32:08.297Z,364
2022-08-17T08:33:07.326Z,333
2022-08-17T08:34:07.943Z,349
2022-08-17T08:35:07.956Z,361
2022-08-17T08:36:07.599Z,362
2022-08-17T08:37:17.617Z,365
2022-08-17T08:38:07.953Z,361
2022-08-17T08:39:07.729Z,364
2022-08-17T08:40:07.512Z,356
2022-08-17T08:41:07.492Z,361
2022-08-17T08:43:07.216Z,360
2022-08-17T08:44:07.775Z,356
2022-08-17T08:45:08.153Z,357
2022-08-17T08:47:07.532Z,360
2022-08-17T08:48:23.078Z,374
2022-08-17T08:49:12.032Z,380
2022-08-17T08:50:07.467Z,366
2022-08-17T08:51:08.566Z,377
2022-08-17T08:52:07.583Z,382
2022-08-17T08:53:07.287Z,368
2022-08-17T08:54:07.714Z,371
2022-08-17T08:55:07.614Z,363
2022-08-17T08:56:07.624Z,372
2022-08-17T08:57:26.695Z,374
2022-08-17T08:58:08.272Z,361
2022-08-17T08:59:07.042Z,365
2022-08-17T09:00:08.731Z,358
2022-08-17T09:01:07.150Z,365
2022-08-17T09:03:07.314Z,375
2022-08-17T09:04:23.227Z,364
2022-08-17T09:06:32.175Z,360
2022-08-17T09:07:07.039Z,368
2022-08-17T09:08:07.327Z,367
2022-08-17T09:09:07.405Z,364
2022-08-17T09:10:07.181Z,354
2022-08-17T09:11:07.745Z,356
2022-08-17T09:12:07.238Z,361
2022-08-17T09:13:10.132Z,373
2022-08-17T09:14:07.136Z,381
2022-08-17T09:15:12.724Z,359
2022-08-17T09:16:07.266Z,354
2022-08-17T09:17:08.048Z,359
2022-08-17T09:19:00.840Z,372
2022-08-17T09:19:09.119Z,368
2022-08-17T09:20:07.724Z,367
2022-08-17T09:21:07.114Z,358
2022-08-17T09:22:07.402Z,371
2022-08-17T09:23:07.609Z,373
2022-08-17T09:24:07.189Z,371
2022-08-17T09:25:07.630Z,372
2022-08-17T09:26:07.120Z,375
2022-08-17T09:27:07.516Z,359
2022-08-17T09:28:07.746Z,377
2022-08-17T09:29:07.220Z,365
2022-08-17T09:30:08.046Z,366
2022-08-17T09:31:07.342Z,379
2022-08-17T09:32:07.305Z,391
2022-08-17T09:33:07.582Z,384
2022-08-17T09:34:07.600Z,385
2022-08-17T09:35:07.181Z,388
2022-08-17T09:36:07.838Z,374
2022-08-17T09:37:07.612Z,376
2022-08-17T09:38:07.338Z,381
2022-08-17T09:39:07.780Z,378
2022-08-17T09:40:07.592Z,374
2022-08-17T09:41:07.181Z,383
2022-08-17T09:42:07.546Z,398
2022-08-17T09:43:06.836Z,377
2022-08-17T09:44:12.103Z,375
2022-08-17T09:45:07.788Z,369
2022-08-17T09:46:07.174Z,371
2022-08-17T09:47:07.894Z,370
2022-08-17T09:48:07.579Z,362
2022-08-17T09:49:07.393Z,348
2022-08-17T09:50:07.523Z,358
2022-08-17T09:51:07.305Z,370
2022-08-17T09:52:07.905Z,383
2022-08-17T09:53:07.456Z,384
2022-08-17T09:54:36.979Z,370
2022-08-17T09:55:07.205Z,358
2022-08-17T09:56:07.353Z,367
2022-08-17T09:57:28.617Z,353
2022-08-17T09:58:07.475Z,354
2022-08-17T09:59:07.546Z,361
2022-08-17T10:00:08.538Z,371
2022-08-17T10:01:07.252Z,365
2022-08-17T10:02:07.815Z,355
2022-08-17T10:03:07.472Z,361
2022-08-17T10:04:07.977Z,364
2022-08-17T10:05:07.705Z,360
2022-08-17T10:06:07.163Z,353
2022-08-17T10:08:07.177Z,358
2022-08-17T10:09:07.755Z,364
2022-08-17T10:10:13.574Z,322
2022-08-17T10:11:08.007Z,390
2022-08-17T10:12:07.483Z,375
2022-08-17T10:13:09.544Z,373
2022-08-17T10:14:35.988Z,362
2022-08-17T10:15:09.530Z,353
2022-08-17T10:16:07.526Z,357
2022-08-17T10:17:08.137Z,354
2022-08-17T10:18:07.659Z,355
2022-08-17T10:19:07.169Z,347
2022-08-17T10:20:07.818Z,360
2022-08-17T10:21:07.542Z,363
2022-08-17T10:23:07.689Z,341
2022-08-17T10:24:07.235Z,364
2022-08-17T10:25:23.768Z,332
2022-08-17T10:26:07.654Z,330
2022-08-17T10:27:07.385Z,336
2022-08-17T10:28:07.429Z,348
2022-08-17T10:29:07.517Z,352
2022-08-17T10:30:07.424Z,350
2022-08-17T10:32:07.301Z,343
2022-08-17T10:33:07.800Z,344
2022-08-17T10:34:07.483Z,347
2022-08-17T10:35:07.188Z,357
2022-08-17T10:36:10.783Z,343
2022-08-17T10:37:07.742Z,364
2022-08-17T10:38:07.521Z,321
2022-08-17T10:39:07.344Z,327
2022-08-17T10:40:08.137Z,329
2022-08-17T10:41:07.375Z,336
2022-08-17T10:42:07.836Z,357
2022-08-17T10:43:07.339Z,361
2022-08-17T10:44:40.784Z,358
2022-08-17T10:45:07.777Z,356
2022-08-17T10:46:27.679Z,357
2022-08-17T10:47:07.618Z,359
2022-08-17T10:48:07.794Z,357
2022-08-17T10:49:07.390Z,345
2022-08-17T10:50:07.562Z,336
2022-08-17T10:51:07.322Z,339
2022-08-17T10:52:07.222Z,346
2022-08-17T10:53:08.040Z,340
2022-08-17T10:54:07.638Z,352
2022-08-17T10:55:07.160Z,342
2022-08-17T10:56:07.045Z,338
2022-08-17T10:57:07.489Z,344
2022-08-17T10:58:07.282Z,346
2022-08-17T10:59:07.829Z,336
2022-08-17T11:00:07.968Z,340
2022-08-17T11:01:07.535Z,346
2022-08-17T11:02:07.474Z,348
2022-08-17T11:03:07.289Z,346
2022-08-17T11:04:07.044Z,361
2022-08-17T11:05:07.874Z,354
2022-08-17T11:06:07.546Z,349
2022-08-17T11:07:07.467Z,352
2022-08-17T11:08:08.092Z,358
2022-08-17T11:09:08.116Z,366
2022-08-17T11:10:07.886Z,369
2022-08-17T11:11:07.530Z,365
2022-08-17T11:12:07.263Z,347
2022-08-17T11:13:08.315Z,344
2022-08-17T11:14:07.871Z,355
2022-08-17T11:15:07.953Z,350
2022-08-17T11:16:12.666Z,364
2022-08-17T11:18:08.027Z,374
2022-08-17T11:19:07.646Z,375
2022-08-17T11:21:07.509Z,367
2022-08-17T11:22:07.498Z,358
2022-08-17T11:23:07.909Z,348
2022-08-17T11:24:07.627Z,339
2022-08-17T11:25:07.210Z,338
2022-08-17T11:26:07.859Z,347
2022-08-17T11:27:07.660Z,351
2022-08-17T11:28:07.737Z,350
2022-08-17T11:29:07.712Z,348
2022-08-17T11:30:08.972Z,358
2022-08-17T11:31:08.399Z,322
2022-08-17T11:32:07.773Z,323
2022-08-17T11:33:07.336Z,335
2022-08-17T11:34:07.575Z,343
2022-08-17T11:35:07.200Z,346
2022-08-17T11:37:07.347Z,350
2022-08-17T11:38:09.698Z,343
2022-08-17T11:39:07.794Z,335
2022-08-17T11:40:21.350Z,352
2022-08-17T11:41:07.395Z,343
2022-08-17T11:42:08.243Z,341
2022-08-17T11:43:08.199Z,340
2022-08-17T11:44:07.767Z,347
2022-08-17T11:45:08.231Z,356
2022-08-17T11:46:07.708Z,347
2022-08-17T11:47:07.495Z,340
2022-08-17T11:48:27.256Z,343
2022-08-17T11:49:07.892Z,359
2022-08-17T11:50:07.976Z,356
2022-08-17T11:52:07.772Z,348
2022-08-17T11:54:31.874Z,340
2022-08-17T11:55:31.784Z,338
2022-08-17T11:56:07.866Z,339
2022-08-17T11:57:07.900Z,332
2022-08-17T11:58:07.109Z,336
2022-08-17T11:59:07.461Z,333
2022-08-17T12:00:07.957Z,336
2022-08-17T12:01:07.718Z,352
2022-08-17T12:02:07.283Z,344
2022-08-17T12:03:07.985Z,338
2022-08-17T12:04:07.737Z,337
2022-08-17T12:05:09.713Z,333
2022-08-17T12:06:30.287Z,339
2022-08-17T12:07:07.429Z,341
2022-08-17T12:08:08.139Z,349
2022-08-17T12:09:08.209Z,346
2022-08-17T12:10:07.891Z,341
2022-08-17T12:11:07.379Z,357
2022-08-17T12:12:13.000Z,366
2022-08-17T12:13:07.550Z,365
2022-08-17T12:14:07.339Z,353
2022-08-17T12:15:10.961Z,347
2022-08-17T12:16:07.931Z,351
2022-08-17T12:17:07.801Z,349
2022-08-17T12:18:07.931Z,340
2022-08-17T12:19:07.413Z,334
2022-08-17T12:20:08.111Z,340
2022-08-17T12:22:07.293Z,336
2022-08-17T12:23:08.269Z,393
2022-08-17T12:24:07.178Z,372
2022-08-17T12:25:08.297Z,354
2022-08-17T12:26:07.872Z,340
2022-08-17T12:27:07.256Z,351
2022-08-17T12:29:09.393Z,347
2022-08-17T12:30:07.687Z,345
2022-08-17T12:31:07.385Z,360
2022-08-17T12:32:07.808Z,364
2022-08-17T12:33:07.183Z,359
2022-08-17T12:35:07.234Z,347
2022-08-17T12:36:07.966Z,336
2022-08-17T12:37:07.597Z,340
2022-08-17T12:38:07.092Z,336
2022-08-17T12:39:14.582Z,344
2022-08-17T12:40:07.717Z,338
2022-08-17T12:41:07.626Z,334
2022-08-17T12:42:07.611Z,343
2022-08-17T12:43:07.929Z,347
2022-08-17T12:44:07.717Z,359
2022-08-17T12:45:07.533Z,358
2022-08-17T12:46:13.127Z,345
2022-08-17T12:47:07.925Z,323
2022-08-17T12:48:07.503Z,330
2022-08-17T12:49:07.612Z,367
2022-08-17T12:50:07.602Z,339
2022-08-17T12:51:08.000Z,329
2022-08-17T12:52:07.869Z,346
2022-08-17T12:53:07.406Z,341
2022-08-17T12:54:07.248Z,338
2022-08-17T12:55:07.797Z,330
2022-08-17T12:56:07.725Z,337
2022-08-17T12:57:07.645Z,348
2022-08-17T12:58:13.610Z,338
2022-08-17T12:59:08.020Z,327
2022-08-17T13:00:08.220Z,336
2022-08-17T13:02:07.890Z,325
2022-08-17T13:03:07.682Z,329
2022-08-17T13:04:08.102Z,338
2022-08-17T13:05:07.843Z,341
2022-08-17T13:06:07.573Z,344
2022-08-17T13:07:07.103Z,346
2022-08-17T13:08:07.801Z,351
2022-08-17T13:09:07.825Z,355
2022-08-17T13:10:07.325Z,352
2022-08-17T13:11:08.088Z,341
2022-08-17T13:12:07.992Z,345
2022-08-17T13:13:08.004Z,351
2022-08-17T13:14:08.416Z,340
2022-08-17T13:15:08.042Z,352
2022-08-17T13:16:07.862Z,342
2022-08-17T13:17:12.834Z,349
2022-08-17T13:18:07.668Z,338
2022-08-17T13:19:07.614Z,327
2022-08-17T13:20:08.197Z,340
2022-08-17T13:21:08.538Z,345
2022-08-17T13:22:08.147Z,344
2022-08-17T13:24:08.098Z,338
2022-08-17T13:25:08.713Z,350
2022-08-17T13:26:08.004Z,352
2022-08-17T13:27:08.801Z,357
2022-08-17T13:28:07.873Z,352
2022-08-17T13:29:08.386Z,359
2022-08-17T13:30:07.916Z,342
2022-08-17T13:31:08.629Z,337
2022-08-17T13:33:07.899Z,343
2022-08-17T13:34:08.498Z,346
2022-08-17T13:35:14.911Z,351
2022-08-17T13:36:08.198Z,350
2022-08-17T13:37:08.058Z,343
2022-08-17T13:38:07.757Z,347
2022-08-17T13:39:08.289Z,349
2022-08-17T13:40:08.365Z,331
2022-08-17T13:41:08.553Z,366
2022-08-17T13:42:11.156Z,334
2022-08-17T13:43:07.903Z,339
2022-08-17T13:44:08.320Z,338
2022-08-17T13:45:32.182Z,337
2022-08-17T13:46:08.188Z,332
2022-08-17T13:47:07.994Z,323
2022-08-17T13:48:08.160Z,330
2022-08-17T13:49:07.721Z,327
2022-08-17T13:50:07.870Z,335
2022-08-17T13:51:07.980Z,340
2022-08-17T13:52:08.447Z,341
2022-08-17T13:53:08.701Z,337
2022-08-17T13:54:07.726Z,330
2022-08-17T13:55:08.350Z,363
2022-08-17T13:56:37.407Z,348
2022-08-17T13:57:08.032Z,344
2022-08-17T13:58:08.422Z,350
2022-08-17T13:59:08.194Z,349
2022-08-17T14:00:09.200Z,338
2022-08-17T14:01:08.539Z,327
2022-08-17T14:02:08.650Z,331
2022-08-17T14:03:08.126Z,328
2022-08-17T14:04:07.433Z,336
2022-08-17T14:05:07.565Z,344
2022-08-17T14:06:08.242Z,357
2022-08-17T14:07:07.971Z,361
2022-08-17T14:08:08.870Z,329
2022-08-17T14:09:08.087Z,340
2022-08-17T14:10:08.048Z,348
2022-08-17T14:11:08.758Z,354
2022-08-17T14:12:08.090Z,351
2022-08-17T14:13:08.452Z,347
2022-08-17T14:14:07.596Z,337
2022-08-17T14:15:07.620Z,336
2022-08-17T14:16:07.750Z,345
2022-08-17T14:17:08.132Z,354
2022-08-17T14:18:07.639Z,340
2022-08-17T14:19:07.627Z,342
2022-08-17T14:20:07.837Z,330
2022-08-17T14:21:07.965Z,356
2022-08-17T14:22:08.263Z,363
2022-08-17T14:23:08.097Z,355
2022-08-17T14:24:08.141Z,351
2022-08-17T14:25:08.657Z,349
2022-08-17T14:26:07.730Z,340
2022-08-17T14:27:07.703Z,342
2022-08-17T14:29:12.661Z,339
2022-08-17T14:30:08.269Z,336
2022-08-17T14:31:08.089Z,340
2022-08-17T14:32:08.247Z,345
2022-08-17T14:33:08.510Z,357
2022-08-17T14:35:07.603Z,352
2022-08-17T14:36:07.843Z,350